sensor_id;sensor_type;location;lat;lon;timestamp;temperature;humidity
46217;DHT22;47258;59.424;13.482;2023-03-11T00:01:44;-9.10;99.90
46217;DHT22;47258;59.424;13.482;2023-03-11T00:04:11;-9.20;99.90
46217;DHT22;47258;59.424;13.482;2023-03-11T00:06:38;-9.20;99.90
46217;DHT22;47258;59.424;13.482;2023-03-11T00:09:05;-9.20;99.90
46217;DHT22;47258;59.424;13.482;2023-03-11T00:11:32;-9.10;99.90
46217;DHT22;47258;59.424;13.482;2023-03-11T00:13:59;-9.10;99.90
46217;DHT22;47258;59.424;13.482;2023-03-11T00:16:28;-9.20;99.90
46217;DHT22;47258;59.424;13.482;2023-03-11T00:18:55;-9.20;99.90
46217;DHT22;47258;59.424;13.482;2023-03-11T00:21:22;-9.20;99.90
46217;DHT22;47258;59.424;13.482;2023-03-11T00:23:49;-9.20;99.90
46217;DHT22;47258;59.424;13.482;2023-03-11T00:26:16;-9.20;99.90
46217;DHT22;47258;59.424;13.482;2023-03-11T00:28:44;-9.20;99.90
46217;DHT22;47258;59.424;13.482;2023-03-11T00:31:13;-9.20;99.90
46217;DHT22;47258;59.424;13.482;2023-03-11T00:33:41;-9.30;99.90
46217;DHT22;47258;59.424;13.482;2023-03-11T00:36:19;-9.20;99.90
46217;DHT22;47258;59.424;13.482;2023-03-11T00:38:48;-9.20;99.90
46217;DHT22;47258;59.424;13.482;2023-03-11T00:41:16;-9.20;99.90
46217;DHT22;47258;59.424;13.482;2023-03-11T00:43:43;-9.20;99.90
46217;DHT22;47258;59.424;13.482;2023-03-11T00:46:10;-9.10;99.90
46217;DHT22;47258;59.424;13.482;2023-03-11T00:48:37;-9.10;99.90
46217;DHT22;47258;59.424;13.482;2023-03-11T00:51:11;-9.10;99.90
46217;DHT22;47258;59.424;13.482;2023-03-11T00:53:39;-9.10;99.90
46217;DHT22;47258;59.424;13.482;2023-03-11T00:56:07;-9.10;99.90
46217;DHT22;47258;59.424;13.482;2023-03-11T00:58:34;-9.00;99.90
46217;DHT22;47258;59.424;13.482;2023-03-11T01:01:06;-9.00;99.90
46217;DHT22;47258;59.424;13.482;2023-03-11T01:03:34;-8.90;99.90
46217;DHT22;47258;59.424;13.482;2023-03-11T01:06:01;-8.90;99.90
46217;DHT22;47258;59.424;13.482;2023-03-11T01:08:30;-8.90;99.90
46217;DHT22;47258;59.424;13.482;2023-03-11T01:10:59;-8.90;99.90
46217;DHT22;47258;59.424;13.482;2023-03-11T01:13:28;-8.90;99.90
46217;DHT22;47258;59.424;13.482;2023-03-11T01:15:55;-8.90;99.90
46217;DHT22;47258;59.424;13.482;2023-03-11T01:18:24;-8.90;99.90
46217;DHT22;47258;59.424;13.482;2023-03-11T01:20:52;-8.90;99.90
46217;DHT22;47258;59.424;13.482;2023-03-11T01:23:19;-8.90;99.90
46217;DHT22;47258;59.424;13.482;2023-03-11T01:25:48;-8.90;99.90
46217;DHT22;47258;59.424;13.482;2023-03-11T01:28:15;-8.90;99.90
46217;DHT22;47258;59.424;13.482;2023-03-11T01:30:43;-8.90;99.90
46217;DHT22;47258;59.424;13.482;2023-03-11T01:33:14;-8.90;99.90
46217;DHT22;47258;59.424;13.482;2023-03-11T01:35:42;-8.90;99.90
46217;DHT22;47258;59.424;13.482;2023-03-11T01:38:10;-8.90;99.90
46217;DHT22;47258;59.424;13.482;2023-03-11T01:40:39;-8.90;99.90
46217;DHT22;47258;59.424;13.482;2023-03-11T01:46:23;-9.00;99.90
46217;DHT22;47258;59.424;13.482;2023-03-11T01:48:51;-9.00;99.90
46217;DHT22;47258;59.424;13.482;2023-03-11T01:51:23;-9.10;99.90
46217;DHT22;47258;59.424;13.482;2023-03-11T01:53:52;-9.10;99.90
46217;DHT22;47258;59.424;13.482;2023-03-11T01:56:20;-9.10;99.90
46217;DHT22;47258;59.424;13.482;2023-03-11T01:58:49;-9.20;99.90
46217;DHT22;47258;59.424;13.482;2023-03-11T02:03:51;-9.30;99.90
46217;DHT22;47258;59.424;13.482;2023-03-11T02:06:21;-9.20;99.90
46217;DHT22;47258;59.424;13.482;2023-03-11T02:08:49;-9.20;99.90
46217;DHT22;47258;59.424;13.482;2023-03-11T02:11:19;-9.20;99.90
46217;DHT22;47258;59.424;13.482;2023-03-11T02:13:49;-9.30;99.90
46217;DHT22;47258;59.424;13.482;2023-03-11T02:16:17;-9.30;99.90
46217;DHT22;47258;59.424;13.482;2023-03-11T02:18:44;-9.30;99.90
46217;DHT22;47258;59.424;13.482;2023-03-11T02:21:20;-9.30;99.90
46217;DHT22;47258;59.424;13.482;2023-03-11T02:23:52;-9.20;99.90
46217;DHT22;47258;59.424;13.482;2023-03-11T02:26:23;-9.20;99.90
46217;DHT22;47258;59.424;13.482;2023-03-11T02:28:54;-9.20;99.90
46217;DHT22;47258;59.424;13.482;2023-03-11T02:31:23;-9.20;99.90
46217;DHT22;47258;59.424;13.482;2023-03-11T02:33:51;-9.20;99.90
46217;DHT22;47258;59.424;13.482;2023-03-11T02:36:33;-9.30;99.90
46217;DHT22;47258;59.424;13.482;2023-03-11T02:39:01;-9.40;99.90
46217;DHT22;47258;59.424;13.482;2023-03-11T02:41:29;-9.40;99.90
46217;DHT22;47258;59.424;13.482;2023-03-11T02:43:59;-9.40;99.90
46217;DHT22;47258;59.424;13.482;2023-03-11T02:46:27;-9.40;99.90
46217;DHT22;47258;59.424;13.482;2023-03-11T02:48:55;-9.50;99.90
46217;DHT22;47258;59.424;13.482;2023-03-11T02:51:22;-9.50;99.90
46217;DHT22;47258;59.424;13.482;2023-03-11T02:53:51;-9.50;99.90
46217;DHT22;47258;59.424;13.482;2023-03-11T02:56:19;-9.50;99.90
46217;DHT22;47258;59.424;13.482;2023-03-11T02:58:47;-9.60;99.90
46217;DHT22;47258;59.424;13.482;2023-03-11T03:01:15;-9.70;99.90
46217;DHT22;47258;59.424;13.482;2023-03-11T03:03:42;-9.70;99.90
46217;DHT22;47258;59.424;13.482;2023-03-11T03:06:09;-9.80;99.90
46217;DHT22;47258;59.424;13.482;2023-03-11T03:08:36;-9.80;99.90
46217;DHT22;47258;59.424;13.482;2023-03-11T03:11:04;-9.80;99.90
46217;DHT22;47258;59.424;13.482;2023-03-11T03:13:31;-9.90;99.90
46217;DHT22;47258;59.424;13.482;2023-03-11T03:15:58;-9.90;99.90
46217;DHT22;47258;59.424;13.482;2023-03-11T03:18:27;-9.90;99.90
46217;DHT22;47258;59.424;13.482;2023-03-11T03:20:54;-10.00;99.90
46217;DHT22;47258;59.424;13.482;2023-03-11T03:23:22;-9.90;99.90
46217;DHT22;47258;59.424;13.482;2023-03-11T03:25:49;-9.90;99.90
46217;DHT22;47258;59.424;13.482;2023-03-11T03:28:16;-9.90;99.90
46217;DHT22;47258;59.424;13.482;2023-03-11T03:30:44;-9.90;99.90
46217;DHT22;47258;59.424;13.482;2023-03-11T03:33:11;-9.90;99.90
46217;DHT22;47258;59.424;13.482;2023-03-11T03:35:42;-9.90;99.90
46217;DHT22;47258;59.424;13.482;2023-03-11T03:38:09;-9.90;99.90
46217;DHT22;47258;59.424;13.482;2023-03-11T03:40:37;-9.80;99.90
46217;DHT22;47258;59.424;13.482;2023-03-11T03:43:04;-9.90;99.90
46217;DHT22;47258;59.424;13.482;2023-03-11T03:45:31;-9.90;99.90
46217;DHT22;47258;59.424;13.482;2023-03-11T03:47:58;-9.80;99.90
46217;DHT22;47258;59.424;13.482;2023-03-11T03:50:25;-9.80;99.90
46217;DHT22;47258;59.424;13.482;2023-03-11T03:52:54;-9.80;99.90
46217;DHT22;47258;59.424;13.482;2023-03-11T03:55:21;-9.80;99.90
46217;DHT22;47258;59.424;13.482;2023-03-11T03:57:48;-9.70;99.90
46217;DHT22;47258;59.424;13.482;2023-03-11T04:00:16;-9.80;99.90
46217;DHT22;47258;59.424;13.482;2023-03-11T04:02:43;-9.80;99.90
46217;DHT22;47258;59.424;13.482;2023-03-11T04:05:10;-9.80;99.90
46217;DHT22;47258;59.424;13.482;2023-03-11T04:07:37;-9.80;99.90
46217;DHT22;47258;59.424;13.482;2023-03-11T04:10:06;-9.80;99.90
46217;DHT22;47258;59.424;13.482;2023-03-11T04:12:33;-9.80;99.90
46217;DHT22;47258;59.424;13.482;2023-03-11T04:15:00;-9.90;99.90
46217;DHT22;47258;59.424;13.482;2023-03-11T04:17:27;-9.90;99.90
46217;DHT22;47258;59.424;13.482;2023-03-11T04:19:55;-9.80;99.90
46217;DHT22;47258;59.424;13.482;2023-03-11T04:22:22;-9.80;99.90
46217;DHT22;47258;59.424;13.482;2023-03-11T04:24:49;-9.80;99.90
46217;DHT22;47258;59.424;13.482;2023-03-11T04:27:17;-9.80;99.90
46217;DHT22;47258;59.424;13.482;2023-03-11T04:29:44;-9.90;99.90
46217;DHT22;47258;59.424;13.482;2023-03-11T04:32:11;-9.90;99.90
46217;DHT22;47258;59.424;13.482;2023-03-11T04:34:38;-10.00;99.90
46217;DHT22;47258;59.424;13.482;2023-03-11T04:37:06;-10.00;99.90
46217;DHT22;47258;59.424;13.482;2023-03-11T04:39:33;-10.00;99.90
46217;DHT22;47258;59.424;13.482;2023-03-11T04:42:00;-10.10;99.90
46217;DHT22;47258;59.424;13.482;2023-03-11T04:44:29;-10.10;99.90
46217;DHT22;47258;59.424;13.482;2023-03-11T04:46:56;-10.20;99.90
46217;DHT22;47258;59.424;13.482;2023-03-11T04:49:23;-10.30;99.90
46217;DHT22;47258;59.424;13.482;2023-03-11T04:51:50;-10.30;99.90
46217;DHT22;47258;59.424;13.482;2023-03-11T04:54:17;-10.30;99.90
46217;DHT22;47258;59.424;13.482;2023-03-11T04:56:44;-10.30;99.90
46217;DHT22;47258;59.424;13.482;2023-03-11T04:59:11;-10.30;99.90
46217;DHT22;47258;59.424;13.482;2023-03-11T05:01:40;-10.40;99.90
46217;DHT22;47258;59.424;13.482;2023-03-11T05:04:07;-10.40;99.90
46217;DHT22;47258;59.424;13.482;2023-03-11T05:06:35;-10.40;99.90
46217;DHT22;47258;59.424;13.482;2023-03-11T05:09:02;-10.40;99.90
46217;DHT22;47258;59.424;13.482;2023-03-11T05:11:29;-10.40;99.90
46217;DHT22;47258;59.424;13.482;2023-03-11T05:13:56;-10.40;99.90
46217;DHT22;47258;59.424;13.482;2023-03-11T05:16:23;-10.50;99.90
46217;DHT22;47258;59.424;13.482;2023-03-11T05:18:52;-10.50;99.90
46217;DHT22;47258;59.424;13.482;2023-03-11T05:21:19;-10.60;99.90
46217;DHT22;47258;59.424;13.482;2023-03-11T05:23:46;-10.60;99.90
46217;DHT22;47258;59.424;13.482;2023-03-11T05:26:13;-10.60;99.90
46217;DHT22;47258;59.424;13.482;2023-03-11T05:28:40;-10.60;99.90
46217;DHT22;47258;59.424;13.482;2023-03-11T05:31:08;-10.60;99.90
46217;DHT22;47258;59.424;13.482;2023-03-11T05:33:35;-10.70;99.90
46217;DHT22;47258;59.424;13.482;2023-03-11T05:36:05;-10.70;99.90
46217;DHT22;47258;59.424;13.482;2023-03-11T05:38:33;-10.70;99.90
46217;DHT22;47258;59.424;13.482;2023-03-11T05:41:00;-10.70;99.90
46217;DHT22;47258;59.424;13.482;2023-03-11T05:43:27;-10.70;99.90
46217;DHT22;47258;59.424;13.482;2023-03-11T05:45:54;-10.70;99.90
46217;DHT22;47258;59.424;13.482;2023-03-11T05:48:21;-10.80;99.90
46217;DHT22;47258;59.424;13.482;2023-03-11T05:50:48;-10.80;99.90
46217;DHT22;47258;59.424;13.482;2023-03-11T05:53:17;-10.90;99.90
46217;DHT22;47258;59.424;13.482;2023-03-11T05:55:44;-10.90;99.90
46217;DHT22;47258;59.424;13.482;2023-03-11T05:58:11;-10.90;99.90
46217;DHT22;47258;59.424;13.482;2023-03-11T06:00:38;-10.90;99.90
46217;DHT22;47258;59.424;13.482;2023-03-11T06:03:05;-10.80;99.90
46217;DHT22;47258;59.424;13.482;2023-03-11T06:05:32;-10.80;99.90
46217;DHT22;47258;59.424;13.482;2023-03-11T06:07:59;-10.70;99.90
46217;DHT22;47258;59.424;13.482;2023-03-11T06:10:28;-10.70;99.90
46217;DHT22;47258;59.424;13.482;2023-03-11T06:12:55;-10.80;99.90
46217;DHT22;47258;59.424;13.482;2023-03-11T06:15:22;-10.80;99.90
46217;DHT22;47258;59.424;13.482;2023-03-11T06:17:49;-10.90;99.90
46217;DHT22;47258;59.424;13.482;2023-03-11T06:20:16;-10.90;99.90
46217;DHT22;47258;59.424;13.482;2023-03-11T06:22:43;-10.90;99.90
46217;DHT22;47258;59.424;13.482;2023-03-11T06:25:10;-10.90;99.90
46217;DHT22;47258;59.424;13.482;2023-03-11T06:27:39;-10.90;99.90
46217;DHT22;47258;59.424;13.482;2023-03-11T06:30:08;-10.90;99.90
46217;DHT22;47258;59.424;13.482;2023-03-11T06:32:35;-10.90;99.90
46217;DHT22;47258;59.424;13.482;2023-03-11T06:35:02;-11.00;99.90
46217;DHT22;47258;59.424;13.482;2023-03-11T06:37:30;-11.00;99.90
46217;DHT22;47258;59.424;13.482;2023-03-11T06:39:57;-11.00;99.90
46217;DHT22;47258;59.424;13.482;2023-03-11T06:42:24;-11.00;99.90
46217;DHT22;47258;59.424;13.482;2023-03-11T06:44:52;-10.90;99.90
46217;DHT22;47258;59.424;13.482;2023-03-11T06:47:19;-10.90;99.90
46217;DHT22;47258;59.424;13.482;2023-03-11T06:49:46;-10.80;99.90
46217;DHT22;47258;59.424;13.482;2023-03-11T06:52:13;-10.80;99.90
46217;DHT22;47258;59.424;13.482;2023-03-11T06:54:41;-10.70;99.90
46217;DHT22;47258;59.424;13.482;2023-03-11T06:57:08;-10.60;99.90
46217;DHT22;47258;59.424;13.482;2023-03-11T06:59:35;-10.50;99.90
46217;DHT22;47258;59.424;13.482;2023-03-11T07:02:04;-10.30;99.90
46217;DHT22;47258;59.424;13.482;2023-03-11T07:04:31;-10.20;99.90
46217;DHT22;47258;59.424;13.482;2023-03-11T07:06:59;-10.00;99.90
46217;DHT22;47258;59.424;13.482;2023-03-11T07:09:26;-9.90;99.90
46217;DHT22;47258;59.424;13.482;2023-03-11T07:11:54;-9.60;99.90
46217;DHT22;47258;59.424;13.482;2023-03-11T07:14:21;-9.00;99.90
46217;DHT22;47258;59.424;13.482;2023-03-11T07:16:48;-8.30;99.90
46217;DHT22;47258;59.424;13.482;2023-03-11T07:19:16;-7.90;99.90
46217;DHT22;47258;59.424;13.482;2023-03-11T07:21:44;-7.80;99.90
46217;DHT22;47258;59.424;13.482;2023-03-11T07:24:12;-7.90;99.90
46217;DHT22;47258;59.424;13.482;2023-03-11T07:26:40;-7.90;99.90
46217;DHT22;47258;59.424;13.482;2023-03-11T07:29:08;-8.00;99.90
46217;DHT22;47258;59.424;13.482;2023-03-11T07:31:36;-7.70;99.90
46217;DHT22;47258;59.424;13.482;2023-03-11T07:34:05;-7.20;99.90
46217;DHT22;47258;59.424;13.482;2023-03-11T07:36:39;-5.80;99.90
46217;DHT22;47258;59.424;13.482;2023-03-11T07:39:06;-4.00;99.90
46217;DHT22;47258;59.424;13.482;2023-03-11T07:41:34;-3.00;99.90
46217;DHT22;47258;59.424;13.482;2023-03-11T07:44:02;-2.30;99.90
46217;DHT22;47258;59.424;13.482;2023-03-11T07:46:30;-1.30;99.90
46217;DHT22;47258;59.424;13.482;2023-03-11T07:48:57;0.40;99.90
46217;DHT22;47258;59.424;13.482;2023-03-11T07:51:26;2.40;99.90
46217;DHT22;47258;59.424;13.482;2023-03-11T07:53:56;4.10;99.90
46217;DHT22;47258;59.424;13.482;2023-03-11T07:56:26;5.70;99.90
46217;DHT22;47258;59.424;13.482;2023-03-11T07:58:53;7.10;99.90
46217;DHT22;47258;59.424;13.482;2023-03-11T08:01:22;8.60;99.90
46217;DHT22;47258;59.424;13.482;2023-03-11T08:03:51;10.30;99.90
46217;DHT22;47258;59.424;13.482;2023-03-11T08:06:23;11.80;95.70
46217;DHT22;47258;59.424;13.482;2023-03-11T08:08:50;12.90;92.30
46217;DHT22;47258;59.424;13.482;2023-03-11T08:11:19;14.00;88.60
46217;DHT22;47258;59.424;13.482;2023-03-11T08:13:47;14.60;80.80
46217;DHT22;47258;59.424;13.482;2023-03-11T08:16:16;14.70;76.20
46217;DHT22;47258;59.424;13.482;2023-03-11T08:18:44;14.30;74.80
46217;DHT22;47258;59.424;13.482;2023-03-11T08:21:14;14.30;72.40
46217;DHT22;47258;59.424;13.482;2023-03-11T08:23:41;13.70;70.80
46217;DHT22;47258;59.424;13.482;2023-03-11T08:26:10;13.70;68.90
46217;DHT22;47258;59.424;13.482;2023-03-11T08:28:38;13.20;68.80
46217;DHT22;47258;59.424;13.482;2023-03-11T08:31:11;12.70;69.00
46217;DHT22;47258;59.424;13.482;2023-03-11T08:33:39;11.20;69.20
46217;DHT22;47258;59.424;13.482;2023-03-11T08:36:06;9.70;72.30
46217;DHT22;47258;59.424;13.482;2023-03-11T08:38:33;8.70;75.50
46217;DHT22;47258;59.424;13.482;2023-03-11T08:41:00;8.40;78.00
46217;DHT22;47258;59.424;13.482;2023-03-11T08:43:27;8.60;77.70
46217;DHT22;47258;59.424;13.482;2023-03-11T08:45:56;9.30;77.90
46217;DHT22;47258;59.424;13.482;2023-03-11T08:48:25;10.70;75.00
46217;DHT22;47258;59.424;13.482;2023-03-11T08:50:52;11.90;73.00
46217;DHT22;47258;59.424;13.482;2023-03-11T08:53:19;12.90;69.90
46217;DHT22;47258;59.424;13.482;2023-03-11T08:55:47;12.20;68.80
46217;DHT22;47258;59.424;13.482;2023-03-11T08:58:14;11.80;69.40
46217;DHT22;47258;59.424;13.482;2023-03-11T09:00:41;11.70;69.90
46217;DHT22;47258;59.424;13.482;2023-03-11T09:03:10;10.70;70.80
46217;DHT22;47258;59.424;13.482;2023-03-11T09:05:38;10.00;72.60
46217;DHT22;47258;59.424;13.482;2023-03-11T09:08:05;10.60;71.70
46217;DHT22;47258;59.424;13.482;2023-03-11T09:10:32;10.90;70.90
46217;DHT22;47258;59.424;13.482;2023-03-11T09:12:59;11.60;69.30
46217;DHT22;47258;59.424;13.482;2023-03-11T09:15:26;11.70;68.00
46217;DHT22;47258;59.424;13.482;2023-03-11T09:17:53;10.90;68.70
46217;DHT22;47258;59.424;13.482;2023-03-11T09:20:23;11.40;68.90
46217;DHT22;47258;59.424;13.482;2023-03-11T09:22:50;11.80;68.40
46217;DHT22;47258;59.424;13.482;2023-03-11T09:25:17;12.30;66.80
46217;DHT22;47258;59.424;13.482;2023-03-11T09:27:44;12.10;66.20
46217;DHT22;47258;59.424;13.482;2023-03-11T09:30:12;12.00;64.80
46217;DHT22;47258;59.424;13.482;2023-03-11T09:32:39;11.00;65.40
46217;DHT22;47258;59.424;13.482;2023-03-11T09:35:06;9.50;67.10
46217;DHT22;47258;59.424;13.482;2023-03-11T09:37:35;7.10;68.60
46217;DHT22;47258;59.424;13.482;2023-03-11T09:40:03;6.70;70.70
46217;DHT22;47258;59.424;13.482;2023-03-11T09:42:36;5.70;73.00
46217;DHT22;47258;59.424;13.482;2023-03-11T09:45:12;5.00;75.50
46217;DHT22;47258;59.424;13.482;2023-03-11T09:47:47;4.50;77.70
46217;DHT22;47258;59.424;13.482;2023-03-11T09:50:21;4.00;78.80
46217;DHT22;47258;59.424;13.482;2023-03-11T09:53:11;3.70;80.90
46217;DHT22;47258;59.424;13.482;2023-03-11T09:55:43;3.40;82.30
46217;DHT22;47258;59.424;13.482;2023-03-11T09:58:15;3.20;82.50
46217;DHT22;47258;59.424;13.482;2023-03-11T10:00:44;3.10;83.50
46217;DHT22;47258;59.424;13.482;2023-03-11T10:03:23;3.00;83.50
46217;DHT22;47258;59.424;13.482;2023-03-11T10:05:51;2.90;83.60
46217;DHT22;47258;59.424;13.482;2023-03-11T10:08:22;2.80;83.90
46217;DHT22;47258;59.424;13.482;2023-03-11T10:10:57;2.80;84.50
46217;DHT22;47258;59.424;13.482;2023-03-11T10:13:29;2.70;84.80
46217;DHT22;47258;59.424;13.482;2023-03-11T10:16:01;2.70;85.20
46217;DHT22;47258;59.424;13.482;2023-03-11T10:18:42;2.70;84.20
46217;DHT22;47258;59.424;13.482;2023-03-11T10:21:19;2.80;84.60
46217;DHT22;47258;59.424;13.482;2023-03-11T10:24:06;2.80;86.00
46217;DHT22;47258;59.424;13.482;2023-03-11T10:26:42;2.80;86.70
46217;DHT22;47258;59.424;13.482;2023-03-11T10:29:16;2.90;86.00
46217;DHT22;47258;59.424;13.482;2023-03-11T10:31:49;2.80;86.30
46217;DHT22;47258;59.424;13.482;2023-03-11T10:34:23;2.70;86.00
46217;DHT22;47258;59.424;13.482;2023-03-11T10:36:57;2.70;85.20
46217;DHT22;47258;59.424;13.482;2023-03-11T10:39:28;2.70;85.70
46217;DHT22;47258;59.424;13.482;2023-03-11T10:41:59;2.70;86.20
46217;DHT22;47258;59.424;13.482;2023-03-11T10:44:29;2.80;87.00
46217;DHT22;47258;59.424;13.482;2023-03-11T10:46:58;2.80;86.90
46217;DHT22;47258;59.424;13.482;2023-03-11T10:49:25;2.80;88.40
46217;DHT22;47258;59.424;13.482;2023-03-11T10:51:53;2.90;88.80
46217;DHT22;47258;59.424;13.482;2023-03-11T10:54:28;3.00;89.20
46217;DHT22;47258;59.424;13.482;2023-03-11T10:56:57;3.10;88.70
46217;DHT22;47258;59.424;13.482;2023-03-11T10:59:28;3.10;88.20
46217;DHT22;47258;59.424;13.482;2023-03-11T11:01:56;3.10;87.50
46217;DHT22;47258;59.424;13.482;2023-03-11T11:04:34;3.10;86.80
46217;DHT22;47258;59.424;13.482;2023-03-11T11:07:20;3.10;85.50
46217;DHT22;47258;59.424;13.482;2023-03-11T11:10:12;3.00;85.00
46217;DHT22;47258;59.424;13.482;2023-03-11T11:12:52;3.00;85.30
46217;DHT22;47258;59.424;13.482;2023-03-11T11:15:21;3.00;84.80
46217;DHT22;47258;59.424;13.482;2023-03-11T11:17:49;3.10;85.50
46217;DHT22;47258;59.424;13.482;2023-03-11T11:20:18;3.10;85.50
46217;DHT22;47258;59.424;13.482;2023-03-11T11:22:52;3.00;84.60
46217;DHT22;47258;59.424;13.482;2023-03-11T11:25:34;2.90;82.90
46217;DHT22;47258;59.424;13.482;2023-03-11T11:28:07;2.70;82.90
46217;DHT22;47258;59.424;13.482;2023-03-11T11:30:51;2.70;83.40
46217;DHT22;47258;59.424;13.482;2023-03-11T11:33:25;2.60;81.80
46217;DHT22;47258;59.424;13.482;2023-03-11T11:35:55;2.50;80.60
46217;DHT22;47258;59.424;13.482;2023-03-11T11:38:24;2.30;80.60
46217;DHT22;47258;59.424;13.482;2023-03-11T11:40:55;2.30;83.30
46217;DHT22;47258;59.424;13.482;2023-03-11T11:43:31;2.30;84.00
46217;DHT22;47258;59.424;13.482;2023-03-11T11:46:03;2.40;85.30
46217;DHT22;47258;59.424;13.482;2023-03-11T11:48:38;2.40;83.50
46217;DHT22;47258;59.424;13.482;2023-03-11T11:51:17;2.40;83.00
46217;DHT22;47258;59.424;13.482;2023-03-11T11:53:49;2.30;84.00
46217;DHT22;47258;59.424;13.482;2023-03-11T11:56:23;2.30;83.50
46217;DHT22;47258;59.424;13.482;2023-03-11T11:58:50;2.30;83.50
46217;DHT22;47258;59.424;13.482;2023-03-11T12:01:23;2.30;84.10
46217;DHT22;47258;59.424;13.482;2023-03-11T12:04:20;2.40;84.00
46217;DHT22;47258;59.424;13.482;2023-03-11T12:07:05;2.40;83.30
46217;DHT22;47258;59.424;13.482;2023-03-11T12:09:36;2.30;83.30
46217;DHT22;47258;59.424;13.482;2023-03-11T12:12:18;2.30;83.90
46217;DHT22;47258;59.424;13.482;2023-03-11T12:14:53;2.40;85.20
46217;DHT22;47258;59.424;13.482;2023-03-11T12:17:23;2.40;86.20
46217;DHT22;47258;59.424;13.482;2023-03-11T12:19:53;2.40;85.10
46217;DHT22;47258;59.424;13.482;2023-03-11T12:25:36;2.50;85.20
46217;DHT22;47258;59.424;13.482;2023-03-11T12:28:18;2.50;84.90
46217;DHT22;47258;59.424;13.482;2023-03-11T12:30:48;2.40;83.80
46217;DHT22;47258;59.424;13.482;2023-03-11T12:33:21;2.40;84.70
46217;DHT22;47258;59.424;13.482;2023-03-11T12:35:54;2.40;81.80
46217;DHT22;47258;59.424;13.482;2023-03-11T12:38:27;2.20;80.90
46217;DHT22;47258;59.424;13.482;2023-03-11T12:41:05;2.20;83.70
46217;DHT22;47258;59.424;13.482;2023-03-11T12:44:23;2.20;85.60
46217;DHT22;47258;59.424;13.482;2023-03-11T12:47:18;2.20;87.50
46217;DHT22;47258;59.424;13.482;2023-03-11T12:49:46;2.10;88.60
46217;DHT22;47258;59.424;13.482;2023-03-11T12:52:18;2.10;88.20
46217;DHT22;47258;59.424;13.482;2023-03-11T12:54:47;2.10;90.10
46217;DHT22;47258;59.424;13.482;2023-03-11T12:57:30;2.20;90.40
46217;DHT22;47258;59.424;13.482;2023-03-11T13:00:24;2.30;90.30
46217;DHT22;47258;59.424;13.482;2023-03-11T13:03:31;2.30;90.10
46217;DHT22;47258;59.424;13.482;2023-03-11T13:06:09;2.40;90.30
46217;DHT22;47258;59.424;13.482;2023-03-11T13:08:43;2.60;90.70
46217;DHT22;47258;59.424;13.482;2023-03-11T13:11:35;2.60;90.90
46217;DHT22;47258;59.424;13.482;2023-03-11T13:14:16;2.60;90.60
46217;DHT22;47258;59.424;13.482;2023-03-11T13:16:47;2.50;90.60
46217;DHT22;47258;59.424;13.482;2023-03-11T13:25:30;2.30;90.50
46217;DHT22;47258;59.424;13.482;2023-03-11T13:28:05;2.40;90.60
46217;DHT22;47258;59.424;13.482;2023-03-11T13:30:34;2.40;90.70
46217;DHT22;47258;59.424;13.482;2023-03-11T13:33:20;2.40;90.80
46217;DHT22;47258;59.424;13.482;2023-03-11T13:36:01;2.30;91.00
46217;DHT22;47258;59.424;13.482;2023-03-11T13:38:53;2.40;91.40
46217;DHT22;47258;59.424;13.482;2023-03-11T13:41:28;2.50;91.80
46217;DHT22;47258;59.424;13.482;2023-03-11T13:43:59;2.70;92.60
46217;DHT22;47258;59.424;13.482;2023-03-11T13:46:33;2.90;92.20
46217;DHT22;47258;59.424;13.482;2023-03-11T13:49:08;3.00;92.20
46217;DHT22;47258;59.424;13.482;2023-03-11T13:51:41;3.00;91.80
46217;DHT22;47258;59.424;13.482;2023-03-11T13:54:24;3.00;92.10
46217;DHT22;47258;59.424;13.482;2023-03-11T13:56:56;2.90;92.50
46217;DHT22;47258;59.424;13.482;2023-03-11T13:59:25;2.90;92.00
46217;DHT22;47258;59.424;13.482;2023-03-11T14:01:55;3.00;92.10
46217;DHT22;47258;59.424;13.482;2023-03-11T14:04:24;3.10;91.70
46217;DHT22;47258;59.424;13.482;2023-03-11T14:06:51;3.20;92.00
46217;DHT22;47258;59.424;13.482;2023-03-11T14:09:19;3.20;91.10
46217;DHT22;47258;59.424;13.482;2023-03-11T14:11:47;3.20;91.30
46217;DHT22;47258;59.424;13.482;2023-03-11T14:14:31;3.20;91.40
46217;DHT22;47258;59.424;13.482;2023-03-11T14:17:00;3.30;91.20
46217;DHT22;47258;59.424;13.482;2023-03-11T14:19:30;3.30;91.30
46217;DHT22;47258;59.424;13.482;2023-03-11T14:21:57;3.30;91.30
46217;DHT22;47258;59.424;13.482;2023-03-11T14:24:26;3.20;91.10
46217;DHT22;47258;59.424;13.482;2023-03-11T14:26:56;3.10;91.90
46217;DHT22;47258;59.424;13.482;2023-03-11T14:29:29;3.20;92.30
46217;DHT22;47258;59.424;13.482;2023-03-11T14:31:57;3.20;92.30
46217;DHT22;47258;59.424;13.482;2023-03-11T14:34:26;3.00;92.20
46217;DHT22;47258;59.424;13.482;2023-03-11T14:36:56;2.90;92.20
46217;DHT22;47258;59.424;13.482;2023-03-11T14:39:28;2.80;92.40
46217;DHT22;47258;59.424;13.482;2023-03-11T14:41:58;2.70;93.00
46217;DHT22;47258;59.424;13.482;2023-03-11T14:44:29;2.50;93.10
46217;DHT22;47258;59.424;13.482;2023-03-11T14:47:05;2.40;93.70
46217;DHT22;47258;59.424;13.482;2023-03-11T14:49:34;2.30;93.90
46217;DHT22;47258;59.424;13.482;2023-03-11T14:52:07;2.30;94.30
46217;DHT22;47258;59.424;13.482;2023-03-11T14:54:35;2.20;94.60
46217;DHT22;47258;59.424;13.482;2023-03-11T14:57:06;2.20;94.30
46217;DHT22;47258;59.424;13.482;2023-03-11T14:59:36;2.10;94.70
46217;DHT22;47258;59.424;13.482;2023-03-11T15:02:23;2.10;95.30
46217;DHT22;47258;59.424;13.482;2023-03-11T15:04:54;2.10;94.90
46217;DHT22;47258;59.424;13.482;2023-03-11T15:07:23;2.10;95.30
46217;DHT22;47258;59.424;13.482;2023-03-11T15:09:51;2.10;95.30
46217;DHT22;47258;59.424;13.482;2023-03-11T15:12:33;2.10;95.60
46217;DHT22;47258;59.424;13.482;2023-03-11T15:15:00;2.20;96.10
46217;DHT22;47258;59.424;13.482;2023-03-11T15:17:28;2.30;96.20
46217;DHT22;47258;59.424;13.482;2023-03-11T15:19:57;2.40;96.10
46217;DHT22;47258;59.424;13.482;2023-03-11T15:22:27;2.60;96.80
46217;DHT22;47258;59.424;13.482;2023-03-11T15:24:56;2.70;97.10
46217;DHT22;47258;59.424;13.482;2023-03-11T15:27:28;2.70;96.60
46217;DHT22;47258;59.424;13.482;2023-03-11T15:29:57;2.70;96.50
46217;DHT22;47258;59.424;13.482;2023-03-11T15:32:35;2.70;96.70
46217;DHT22;47258;59.424;13.482;2023-03-11T15:35:13;2.60;96.90
46217;DHT22;47258;59.424;13.482;2023-03-11T15:37:43;2.40;97.00
46217;DHT22;47258;59.424;13.482;2023-03-11T15:40:16;2.30;97.00
46217;DHT22;47258;59.424;13.482;2023-03-11T15:42:44;2.20;96.90
46217;DHT22;47258;59.424;13.482;2023-03-11T15:45:15;2.10;97.20
46217;DHT22;47258;59.424;13.482;2023-03-11T15:47:43;2.00;97.50
46217;DHT22;47258;59.424;13.482;2023-03-11T15:50:18;1.90;97.60
46217;DHT22;47258;59.424;13.482;2023-03-11T15:52:49;1.80;97.80
46217;DHT22;47258;59.424;13.482;2023-03-11T15:55:16;1.70;98.10